createdAt,value
2023-02-12T00:00:39.945Z,92.95
2023-02-12T00:01:39.923Z,92.85
2023-02-12T00:02:40.002Z,93.05
2023-02-12T00:03:40.022Z,93.20
2023-02-12T00:04:39.903Z,93.26
2023-02-12T00:05:39.883Z,93.37
2023-02-12T00:06:39.881Z,93.26
2023-02-12T00:07:40.475Z,92.85
2023-02-12T00:08:39.861Z,93.05
2023-02-12T00:09:39.853Z,92.95
2023-02-12T00:10:39.845Z,93.05
2023-02-12T00:11:41.486Z,92.54
2023-02-12T00:13:46.143Z,92.74
2023-02-12T00:14:46.135Z,92.74
2023-02-12T00:15:46.134Z,92.54
2023-02-12T00:16:46.108Z,92.13
2023-02-12T00:17:46.105Z,92.33
2023-02-12T00:18:46.103Z,92.44
2023-02-12T00:19:46.098Z,92.54
2023-02-12T00:20:46.085Z,92.85
2023-02-12T00:21:46.088Z,92.64
2023-02-12T00:22:46.066Z,92.74
2023-02-12T00:23:46.066Z,92.95
2023-02-12T00:25:29.257Z,92.85
2023-02-12T00:26:29.253Z,92.54
2023-02-12T00:27:30.111Z,93.05
2023-02-12T00:28:29.379Z,93.16
2023-02-12T00:29:29.239Z,93.05
2023-02-12T00:30:29.241Z,93.05
2023-02-12T00:31:29.262Z,92.95
2023-02-12T00:32:29.212Z,92.99
2023-02-12T00:33:29.204Z,93.20
2023-02-12T00:34:29.201Z,93.05
2023-02-12T00:35:29.197Z,93.37
2023-02-12T00:36:29.203Z,92.85
2023-02-12T00:37:29.169Z,93.05
2023-02-12T00:38:29.167Z,93.05
2023-02-12T00:39:29.158Z,92.74
2023-02-12T00:40:29.152Z,93.16
2023-02-12T00:41:29.154Z,93.37
2023-02-12T00:42:29.132Z,93.26
2023-02-12T00:43:29.123Z,93.16
2023-02-12T00:44:29.124Z,93.05
2023-02-12T00:45:29.111Z,93.20
2023-02-12T00:46:29.169Z,93.16
2023-02-12T00:47:29.094Z,93.05
2023-02-12T00:48:29.097Z,93.47
2023-02-12T00:49:29.074Z,93.10
2023-02-12T00:50:31.738Z,93.41
2023-02-12T00:51:29.065Z,92.95
2023-02-12T00:52:29.063Z,93.20
2023-02-12T00:53:29.053Z,93.16
2023-02-12T00:54:29.034Z,93.05
2023-02-12T00:55:30.611Z,93.16
2023-02-12T00:56:29.016Z,93.05
2023-02-12T00:57:29.013Z,93.16
2023-02-12T00:58:28.992Z,93.26
2023-02-12T00:59:28.993Z,93.05
2023-02-12T01:00:28.976Z,93.05
2023-02-12T01:01:28.982Z,93.05
2023-02-12T01:02:28.980Z,92.85
2023-02-12T01:03:28.955Z,92.74
2023-02-12T01:04:28.947Z,93.16
2023-02-12T01:05:28.949Z,92.95
2023-02-12T01:06:28.927Z,92.74
2023-02-12T01:07:28.938Z,92.74
2023-02-12T01:08:28.914Z,92.85
2023-02-12T01:09:28.915Z,92.95
2023-02-12T01:10:28.901Z,93.05
2023-02-12T01:11:28.891Z,92.54
2023-02-12T01:12:29.973Z,93.05
2023-02-12T01:13:31.669Z,92.74
2023-02-12T01:14:29.971Z,92.74
2023-02-12T01:15:29.967Z,92.74
2023-02-12T01:16:29.989Z,92.95
2023-02-12T01:17:29.943Z,93.26
2023-02-12T01:18:29.941Z,92.54
2023-02-12T01:19:29.918Z,92.54
2023-02-12T01:20:29.913Z,92.54
2023-02-12T01:21:29.899Z,92.54
2023-02-12T01:22:29.912Z,92.74
2023-02-12T01:23:29.905Z,92.74
2023-02-12T01:24:29.895Z,92.74
2023-02-12T01:25:29.873Z,92.95
2023-02-12T01:26:29.884Z,92.74
2023-02-12T01:27:29.854Z,92.64
2023-02-12T01:28:29.921Z,92.85
2023-02-12T01:29:29.862Z,92.74
2023-02-12T01:30:29.842Z,93.16
2023-02-12T01:31:29.916Z,92.44
2023-02-12T01:32:29.820Z,92.44
2023-02-12T01:33:29.820Z,92.44
2023-02-12T01:34:29.803Z,92.44
2023-02-12T01:35:29.811Z,92.85
2023-02-12T01:36:29.795Z,92.74
2023-02-12T01:37:29.779Z,92.85
2023-02-12T01:38:29.771Z,92.95
2023-02-12T01:39:29.768Z,92.95
2023-02-12T01:40:29.765Z,92.74
2023-02-12T01:41:29.749Z,92.85
2023-02-12T01:42:29.749Z,93.05
2023-02-12T01:43:29.730Z,92.33
2023-02-12T01:44:29.737Z,92.89
2023-02-12T01:45:30.706Z,92.64
2023-02-12T01:46:29.784Z,93.16
2023-02-12T01:47:29.719Z,92.95
2023-02-12T01:48:29.693Z,92.85
2023-02-12T01:49:29.683Z,92.85
2023-02-12T01:50:29.689Z,92.74
2023-02-12T01:52:02.666Z,92.44
2023-02-12T01:52:29.662Z,92.44
2023-02-12T01:53:29.665Z,92.74
2023-02-12T01:54:29.658Z,92.44
2023-02-12T01:55:29.655Z,92.64
2023-02-12T01:56:29.632Z,92.54
2023-02-12T01:57:29.633Z,92.44
2023-02-12T01:58:29.621Z,93.05
2023-02-12T01:59:29.634Z,92.74
2023-02-12T02:00:29.605Z,92.85
2023-02-12T02:01:29.729Z,92.48
2023-02-12T02:02:29.602Z,92.89
2023-02-12T02:03:29.657Z,92.68
2023-02-12T02:04:29.589Z,92.99
2023-02-12T02:05:29.613Z,93.10
2023-02-12T02:06:29.557Z,93.41
2023-02-12T02:07:29.553Z,93.51
2023-02-12T02:08:29.538Z,93.41
2023-02-12T02:09:29.538Z,92.99
2023-02-12T02:10:30.189Z,93.62
2023-02-12T02:11:29.516Z,92.79
2023-02-12T02:12:29.514Z,92.99
2023-02-12T02:13:29.491Z,93.14
2023-02-12T02:14:29.514Z,93.10
2023-02-12T02:15:29.481Z,93.72
2023-02-12T02:16:29.541Z,93.41
2023-02-12T02:17:29.461Z,93.30
2023-02-12T02:18:29.456Z,93.20
2023-02-12T02:19:29.453Z,93.97
2023-02-12T02:20:29.795Z,93.66
2023-02-12T02:21:30.005Z,93.87
2023-02-12T02:22:30.626Z,94.38
2023-02-12T02:23:31.131Z,94.79
2023-02-12T02:24:29.652Z,95.62
2023-02-12T02:25:29.732Z,95.25
2023-02-12T02:26:30.123Z,95.42
2023-02-12T02:27:29.650Z,95.52
2023-02-12T02:28:29.673Z,95.42
2023-02-12T02:29:31.328Z,94.59
2023-02-12T02:30:29.397Z,94.69
2023-02-12T02:31:29.555Z,93.87
2023-02-12T02:32:29.348Z,93.97
2023-02-12T02:33:29.367Z,94.07
2023-02-12T02:34:30.267Z,94.28
2023-02-12T02:35:29.358Z,94.18
2023-02-12T02:36:29.337Z,93.76
2023-02-12T02:37:29.312Z,93.41
2023-02-12T02:38:29.311Z,93.72
2023-02-12T02:39:29.347Z,93.72
2023-02-12T02:40:29.296Z,94.13
2023-02-12T02:41:29.288Z,93.10
2023-02-12T02:42:29.265Z,93.41
2023-02-12T02:43:29.271Z,93.20
2023-02-12T02:44:29.263Z,93.10
2023-02-12T02:45:29.248Z,93.41
2023-02-12T02:46:29.309Z,93.30
2023-02-12T02:47:29.278Z,93.20
2023-02-12T02:48:29.232Z,92.89
2023-02-12T02:49:29.208Z,93.20
2023-02-12T02:50:32.771Z,93.30
2023-02-12T02:51:29.192Z,92.99
2023-02-12T02:52:29.218Z,92.99
2023-02-12T02:53:29.180Z,93.10
2023-02-12T02:54:29.174Z,92.95
2023-02-12T02:55:29.160Z,92.99
2023-02-12T02:56:29.747Z,93.30
2023-02-12T02:57:29.160Z,93.20
2023-02-12T02:58:29.141Z,93.45
2023-02-12T02:59:29.156Z,93.76
2023-02-12T03:00:30.745Z,93.87
2023-02-12T03:01:29.116Z,94.07
2023-02-12T03:02:29.772Z,93.87
2023-02-12T03:03:29.155Z,93.66
2023-02-12T03:04:29.091Z,93.55
2023-02-12T03:05:29.080Z,93.45
2023-02-12T03:06:29.085Z,93.66
2023-02-12T03:07:29.083Z,93.66
2023-02-12T03:08:29.069Z,93.76
2023-02-12T03:09:29.053Z,93.66
2023-02-12T03:10:29.039Z,93.76
2023-02-12T03:11:29.037Z,93.72
2023-02-12T03:12:29.077Z,93.93
2023-02-12T03:13:29.072Z,93.72
2023-02-12T03:14:29.103Z,93.20
2023-02-12T03:15:29.054Z,93.82
2023-02-12T03:16:29.040Z,92.79
2023-02-12T03:17:29.056Z,92.89
2023-02-12T03:18:29.047Z,93.55
2023-02-12T03:19:29.035Z,93.10
2023-02-12T03:21:35.831Z,93.14
2023-02-12T03:22:35.826Z,93.10
2023-02-12T03:23:35.819Z,93.10
2023-02-12T03:24:35.814Z,93.51
2023-02-12T03:25:36.904Z,92.89
2023-02-12T03:26:36.914Z,92.79
2023-02-12T03:27:36.883Z,93.87
2023-02-12T03:28:37.040Z,93.20
2023-02-12T03:29:36.870Z,93.62
2023-02-12T03:30:36.885Z,93.55
2023-02-12T03:31:36.902Z,92.99
2023-02-12T03:32:36.853Z,93.62
2023-02-12T03:33:36.882Z,93.51
2023-02-12T03:34:36.833Z,93.51
2023-02-12T03:35:36.830Z,93.35
2023-02-12T03:36:36.813Z,93.10
2023-02-12T03:37:36.815Z,93.10
2023-02-12T03:38:36.819Z,93.20
2023-02-12T03:39:36.792Z,93.04
2023-02-12T03:40:36.780Z,93.87
2023-02-12T03:41:37.774Z,94.48
2023-02-12T03:42:36.775Z,94.18
2023-02-12T03:43:36.761Z,94.28
2023-02-12T03:44:36.747Z,93.76
2023-02-12T03:45:36.756Z,93.45
2023-02-12T03:46:36.730Z,93.97
2023-02-12T03:47:36.732Z,93.66
2023-02-12T03:48:36.721Z,93.76
2023-02-12T03:49:37.277Z,93.55
2023-02-12T03:50:36.726Z,93.55
2023-02-12T03:51:36.696Z,93.76
2023-02-12T03:52:36.686Z,93.66
2023-02-12T03:53:36.700Z,93.87
2023-02-12T03:54:37.194Z,93.66
2023-02-12T03:55:36.667Z,94.18
2023-02-12T03:56:36.672Z,93.55
2023-02-12T03:57:37.201Z,93.97
2023-02-12T03:58:36.654Z,93.87
2023-02-12T03:59:36.639Z,93.41
2023-02-12T04:00:37.201Z,93.66
2023-02-12T04:01:37.468Z,93.82
2023-02-12T04:02:36.605Z,93.87
2023-02-12T04:03:36.614Z,94.07
2023-02-12T04:04:36.646Z,93.93
2023-02-12T04:05:36.585Z,94.07
2023-02-12T04:06:36.584Z,93.41
2023-02-12T04:07:36.562Z,94.28
2023-02-12T04:08:36.554Z,93.76
2023-02-12T04:09:36.546Z,93.24
2023-02-12T04:10:37.269Z,93.76
2023-02-12T04:11:36.543Z,94.28
2023-02-12T04:12:36.530Z,93.66
2023-02-12T04:13:37.192Z,93.62
2023-02-12T04:14:36.524Z,93.87
2023-02-12T04:15:36.510Z,93.30
2023-02-12T04:16:38.054Z,93.20
2023-02-12T04:17:37.485Z,93.72
2023-02-12T04:18:36.471Z,93.62
2023-02-12T04:19:36.459Z,93.87
2023-02-12T04:20:36.462Z,93.93
2023-02-12T04:21:36.458Z,93.20
2023-02-12T04:22:36.792Z,94.03
2023-02-12T04:23:36.424Z,93.51
2023-02-12T04:24:36.424Z,93.45
2023-02-12T04:25:36.420Z,93.66
2023-02-12T04:26:36.402Z,94.38
2023-02-12T04:27:36.398Z,94.18
2023-02-12T04:28:36.457Z,94.54
2023-02-12T04:29:36.380Z,94.79
2023-02-12T04:30:36.482Z,94.90
2023-02-12T04:31:36.516Z,95.10
2023-02-12T04:32:36.366Z,95.31
2023-02-12T04:33:36.354Z,95.42
2023-02-12T04:34:36.352Z,95.83
2023-02-12T04:35:36.341Z,96.03
2023-02-12T04:36:36.364Z,96.03
2023-02-12T04:37:36.321Z,95.87
2023-02-12T04:38:36.319Z,96.08
2023-02-12T04:39:36.312Z,96.19
2023-02-12T04:40:36.301Z,97.17
2023-02-12T04:41:36.297Z,97.28
2023-02-12T04:42:36.279Z,97.07
2023-02-12T04:43:37.290Z,96.91
2023-02-12T04:44:36.785Z,96.66
2023-02-12T04:45:36.257Z,97.11
2023-02-12T04:46:36.255Z,97.32
2023-02-12T04:47:36.244Z,97.01
2023-02-12T04:48:36.237Z,97.26
2023-02-12T04:49:36.230Z,97.36
2023-02-12T04:50:37.149Z,97.94
2023-02-12T04:51:37.221Z,97.74
2023-02-12T04:52:36.201Z,97.84
2023-02-12T04:53:36.194Z,97.63
2023-02-12T04:54:36.192Z,97.84
2023-02-12T04:55:36.179Z,97.53
2023-02-12T04:56:36.186Z,97.84
2023-02-12T04:57:36.157Z,98.05
2023-02-12T04:58:36.156Z,97.84
2023-02-12T04:59:36.170Z,98.25
2023-02-12T05:00:36.138Z,97.84
2023-02-12T05:01:36.214Z,98.05
2023-02-12T05:02:36.123Z,98.05
2023-02-12T05:03:36.123Z,98.05
2023-02-12T05:04:36.123Z,98.15
2023-02-12T05:05:36.120Z,98.09
2023-02-12T05:06:36.106Z,98.15
2023-02-12T05:07:36.122Z,98.15
2023-02-12T05:08:36.083Z,98.25
2023-02-12T05:09:36.067Z,98.35
2023-02-12T05:10:36.800Z,99.02
2023-02-12T05:11:36.061Z,98.92
2023-02-12T05:12:36.040Z,99.13
2023-02-12T05:13:36.032Z,99.49
2023-02-12T05:14:36.030Z,99.33
2023-02-12T05:15:36.036Z,99.39
2023-02-12T05:16:36.010Z,99.43
2023-02-12T05:17:36.006Z,99.18
2023-02-12T05:18:35.999Z,99.49
2023-02-12T05:19:35.996Z,99.08
2023-02-12T05:20:35.995Z,99.08
2023-02-12T05:21:35.984Z,98.87
2023-02-12T05:22:35.971Z,98.87
2023-02-12T05:23:35.952Z,98.87
2023-02-12T05:24:35.948Z,98.87
2023-02-12T05:25:35.955Z,99.18
2023-02-12T05:26:35.957Z,99.08
2023-02-12T05:27:35.929Z,98.97
2023-02-12T05:28:35.936Z,99.18
2023-02-12T05:29:36.724Z,98.66
2023-02-12T05:30:35.908Z,98.66
2023-02-12T05:31:36.086Z,98.77
2023-02-12T05:32:35.899Z,98.66
2023-02-12T05:33:35.899Z,98.66
2023-02-12T05:34:35.869Z,98.83
2023-02-12T05:35:35.857Z,97.94
2023-02-12T05:36:35.871Z,98.21
2023-02-12T05:37:35.848Z,98.46
2023-02-12T05:38:35.835Z,98.31
2023-02-12T05:39:35.825Z,98.41
2023-02-12T05:40:35.818Z,98.00
2023-02-12T05:41:35.814Z,98.25
2023-02-12T05:42:35.824Z,98.46
2023-02-12T05:43:35.794Z,98.56
2023-02-12T05:44:35.787Z,98.56
2023-02-12T05:45:35.778Z,99.08
2023-02-12T05:46:36.354Z,99.04
2023-02-12T05:47:35.764Z,99.39
2023-02-12T05:48:36.726Z,98.72
2023-02-12T05:49:35.752Z,98.52
2023-02-12T05:50:35.737Z,98.77
2023-02-12T05:51:35.729Z,99.14
2023-02-12T05:52:35.723Z,98.97
2023-02-12T05:53:35.716Z,98.97
2023-02-12T05:54:35.713Z,99.08
2023-02-12T05:55:35.701Z,99.39
2023-02-12T05:56:35.685Z,99.13
2023-02-12T05:57:35.673Z,99.39
2023-02-12T05:58:35.674Z,99.33
2023-02-12T05:59:35.664Z,99.33
2023-02-12T06:00:35.662Z,99.74
2023-02-12T06:01:35.650Z,99.54
2023-02-12T06:02:35.704Z,99.43
2023-02-12T06:03:35.679Z,99.54
2023-02-12T06:04:36.216Z,99.74
2023-02-12T06:05:35.615Z,99.85
2023-02-12T06:06:35.602Z,99.85
2023-02-12T06:07:35.612Z,99.33
2023-02-12T06:08:35.593Z,99.99
2023-02-12T06:09:35.596Z,99.85
2023-02-12T06:10:35.618Z,99.74
2023-02-12T06:11:35.565Z,99.99
2023-02-12T06:12:35.568Z,99.99
2023-02-12T06:13:35.564Z,99.99
2023-02-12T06:14:35.555Z,99.99
2023-02-12T06:15:35.534Z,99.99
2023-02-12T06:16:35.610Z,99.85
2023-02-12T06:17:35.523Z,99.95
2023-02-12T06:18:36.513Z,99.99
2023-02-12T06:19:35.508Z,99.99
2023-02-12T06:20:35.497Z,99.99
2023-02-12T06:21:35.520Z,99.54
2023-02-12T06:22:35.484Z,99.99
2023-02-12T06:23:35.477Z,99.99
2023-02-12T06:24:35.478Z,99.99
2023-02-12T06:25:35.467Z,99.99
2023-02-12T06:26:35.466Z,99.85
2023-02-12T06:27:35.464Z,99.99
2023-02-12T06:28:35.521Z,99.99
2023-02-12T06:29:35.437Z,99.99
2023-02-12T06:30:35.441Z,99.99
2023-02-12T06:31:35.599Z,99.99
2023-02-12T06:32:35.412Z,99.69
2023-02-12T06:33:36.221Z,99.99
2023-02-12T06:34:35.390Z,99.79
2023-02-12T06:35:35.380Z,99.99
2023-02-12T06:36:35.373Z,99.99
2023-02-12T06:37:35.376Z,99.99
2023-02-12T06:38:35.384Z,99.99
2023-02-12T06:39:35.353Z,99.99
2023-02-12T06:40:35.357Z,99.99
2023-02-12T06:41:35.337Z,99.99
2023-02-12T06:42:35.331Z,99.99
2023-02-12T06:43:35.325Z,99.99
2023-02-12T06:44:35.338Z,99.99
2023-02-12T06:45:35.316Z,99.99
2023-02-12T06:46:35.399Z,99.99
2023-02-12T06:47:35.282Z,99.99
2023-02-12T06:48:35.288Z,99.99
2023-02-12T06:49:35.281Z,99.85
2023-02-12T06:50:35.261Z,99.99
2023-02-12T06:51:35.254Z,99.99
2023-02-12T06:52:35.241Z,99.85
2023-02-12T06:53:35.241Z,99.74
2023-02-12T06:54:35.232Z,99.54
2023-02-12T06:55:35.223Z,99.74
2023-02-12T06:56:35.212Z,99.99
2023-02-12T06:57:35.216Z,99.60
2023-02-12T06:58:35.198Z,99.43
2023-02-12T06:59:35.192Z,99.80
2023-02-12T07:00:35.197Z,99.08
2023-02-12T07:01:35.170Z,99.74
2023-02-12T07:02:37.361Z,99.29
2023-02-12T07:03:35.179Z,99.49
2023-02-12T07:04:35.158Z,99.70
2023-02-12T07:05:35.136Z,98.97
2023-02-12T07:06:35.752Z,99.39
2023-02-12T07:07:35.120Z,99.18
2023-02-12T07:08:35.116Z,99.08
2023-02-12T07:09:35.105Z,99.29
2023-02-12T07:10:35.112Z,99.64
2023-02-12T07:11:37.965Z,99.60
2023-02-12T07:12:36.102Z,99.80
2023-02-12T07:13:35.073Z,99.29
2023-02-12T07:14:35.071Z,99.96
2023-02-12T07:15:35.054Z,99.44
2023-02-12T07:16:35.163Z,99.44
2023-02-12T07:17:35.048Z,98.97
2023-02-12T07:18:35.050Z,99.44
2023-02-12T07:19:35.024Z,99.14
2023-02-12T07:20:35.015Z,99.14
2023-02-12T07:21:35.009Z,99.14
2023-02-12T07:22:35.010Z,99.04
2023-02-12T07:23:34.996Z,99.49
2023-02-12T07:24:35.741Z,99.14
2023-02-12T07:25:34.994Z,98.97
2023-02-12T07:26:34.967Z,99.04
2023-02-12T07:27:34.967Z,99.04
2023-02-12T07:28:35.090Z,99.14
2023-02-12T07:29:34.955Z,99.24
2023-02-12T07:30:35.847Z,99.24
2023-02-12T07:31:35.125Z,98.93
2023-02-12T07:32:34.915Z,99.14
2023-02-12T07:33:34.926Z,99.34
2023-02-12T07:34:34.907Z,99.30
2023-02-12T07:35:34.895Z,99.19
2023-02-12T07:36:34.889Z,99.30
2023-02-12T07:37:34.920Z,98.88
2023-02-12T07:38:35.821Z,98.88
2023-02-12T07:39:34.870Z,98.57
2023-02-12T07:40:34.859Z,98.16
2023-02-12T07:41:34.853Z,97.96
2023-02-12T07:42:34.846Z,98.06
2023-02-12T07:43:34.834Z,98.06
2023-02-12T07:44:34.835Z,98.16
2023-02-12T07:45:34.903Z,98.37
2023-02-12T07:46:34.820Z,98.78
2023-02-12T07:47:34.803Z,98.22
2023-02-12T07:48:34.801Z,98.27
2023-02-12T07:49:34.785Z,98.01
2023-02-12T07:50:34.788Z,98.01
2023-02-12T07:51:35.745Z,97.50
2023-02-12T07:52:34.770Z,97.29
2023-02-12T07:53:34.757Z,97.60
2023-02-12T07:54:34.749Z,97.55
2023-02-12T07:55:34.746Z,97.55
2023-02-12T07:56:34.733Z,97.04
2023-02-12T07:57:34.746Z,97.45
2023-02-12T07:58:34.722Z,97.04
2023-02-12T07:59:34.712Z,96.73
2023-02-12T08:00:34.711Z,96.42
2023-02-12T08:01:34.737Z,96.73
2023-02-12T08:02:34.740Z,96.21
2023-02-12T08:03:34.696Z,96.94
2023-02-12T08:04:34.748Z,97.09
2023-02-12T08:05:34.669Z,96.89
2023-02-12T08:06:34.669Z,96.89
2023-02-12T08:07:35.643Z,96.27
2023-02-12T08:08:35.258Z,96.17
2023-02-12T08:09:34.673Z,95.03
2023-02-12T08:10:34.626Z,94.72
2023-02-12T08:11:34.609Z,95.80
2023-02-12T08:12:34.619Z,95.90
2023-02-12T08:13:34.597Z,95.90
2023-02-12T08:14:34.583Z,95.96
2023-02-12T08:15:34.583Z,96.06
2023-02-12T08:16:34.598Z,95.65
2023-02-12T08:17:34.556Z,95.76
2023-02-12T08:18:34.567Z,95.76
2023-02-12T08:19:34.554Z,95.34
2023-02-12T08:20:34.540Z,95.14
2023-02-12T08:21:34.535Z,95.09
2023-02-12T08:22:34.531Z,95.03
2023-02-12T08:23:34.512Z,95.09
2023-02-12T08:24:34.503Z,95.30
2023-02-12T08:25:37.335Z,94.78
2023-02-12T08:26:36.331Z,94.78
2023-02-12T08:27:34.484Z,94.37
2023-02-12T08:28:34.579Z,94.74
2023-02-12T08:29:34.500Z,95.15
2023-02-12T08:30:34.463Z,94.17
2023-02-12T08:31:35.502Z,93.71
2023-02-12T08:32:34.461Z,93.96
2023-02-12T08:33:34.435Z,94.17
2023-02-12T08:34:34.431Z,94.57
2023-02-12T08:35:34.426Z,94.23
2023-02-12T08:36:34.411Z,94.37
2023-02-12T08:37:34.412Z,94.32
2023-02-12T08:38:34.409Z,93.81
2023-02-12T08:39:34.390Z,93.60
2023-02-12T08:40:34.392Z,93.50
2023-02-12T08:41:35.252Z,93.40
2023-02-12T08:42:34.353Z,93.91
2023-02-12T08:43:34.346Z,93.50
2023-02-12T08:44:34.340Z,93.81
2023-02-12T08:45:34.331Z,93.65
2023-02-12T08:46:34.370Z,93.65
2023-02-12T08:47:34.333Z,93.96
2023-02-12T08:48:34.333Z,93.75
2023-02-12T08:49:34.301Z,93.85
2023-02-12T08:50:34.310Z,94.06
2023-02-12T08:51:34.306Z,93.96
2023-02-12T08:52:34.304Z,93.96
2023-02-12T08:53:34.260Z,93.85
2023-02-12T08:54:34.269Z,93.85
2023-02-12T08:55:34.285Z,93.24
2023-02-12T08:56:34.240Z,93.44
2023-02-12T08:57:34.232Z,93.60
2023-02-12T08:58:34.220Z,93.44
2023-02-12T08:59:34.217Z,94.27
2023-02-12T09:00:34.209Z,94.06
2023-02-12T09:01:34.214Z,95.40
2023-02-12T09:02:34.284Z,94.82
2023-02-12T09:03:34.181Z,94.99
2023-02-12T09:04:34.189Z,94.89
2023-02-12T09:05:34.164Z,94.89
2023-02-12T09:06:34.155Z,94.68
2023-02-12T09:07:34.149Z,94.78
2023-02-12T09:08:34.135Z,94.99
2023-02-12T09:09:45.752Z,94.78
2023-02-12T09:10:35.127Z,95.30
2023-02-12T09:11:34.825Z,94.99
2023-02-12T09:12:35.104Z,94.78
2023-02-12T09:13:34.119Z,94.99
2023-02-12T09:14:34.351Z,95.36
2023-02-12T09:15:34.078Z,94.23
2023-02-12T09:16:34.131Z,94.08
2023-02-12T09:17:34.062Z,93.25
2023-02-12T09:18:34.056Z,93.66
2023-02-12T09:19:34.048Z,93.77
2023-02-12T09:20:34.037Z,93.46
2023-02-12T09:21:34.036Z,93.66
2023-02-12T09:22:35.027Z,93.35
2023-02-12T09:23:34.024Z,93.56
2023-02-12T09:24:34.007Z,93.73
2023-02-12T09:25:34.016Z,92.94
2023-02-12T09:26:33.997Z,93.11
2023-02-12T09:27:33.985Z,93.25
2023-02-12T09:28:34.056Z,92.84
2023-02-12T09:29:33.975Z,92.80
2023-02-12T09:30:34.039Z,92.80
2023-02-12T09:31:34.052Z,92.63
2023-02-12T09:32:33.949Z,92.84
2023-02-12T09:33:33.943Z,93.35
2023-02-12T09:34:33.936Z,93.31
2023-02-12T09:35:33.926Z,94.08
2023-02-12T09:36:34.833Z,94.08
2023-02-12T09:37:33.905Z,93.25
2023-02-12T09:38:33.899Z,94.08
2023-02-12T09:39:33.898Z,93.66
2023-02-12T09:40:33.985Z,93.77
2023-02-12T09:41:33.892Z,93.35
2023-02-12T09:42:33.877Z,93.25
2023-02-12T09:43:33.875Z,93.62
2023-02-12T09:44:33.849Z,93.52
2023-02-12T09:45:33.840Z,93.21
2023-02-12T09:46:33.916Z,93.15
2023-02-12T09:47:33.830Z,93.31
2023-02-12T09:48:33.825Z,93.11
2023-02-12T09:49:33.814Z,93.31
2023-02-12T09:50:33.826Z,93.83
2023-02-12T09:51:33.789Z,93.73
2023-02-12T09:52:33.798Z,93.93
2023-02-12T09:53:33.778Z,93.31
2023-02-12T09:54:33.777Z,92.69
2023-02-12T09:55:33.761Z,93.01
2023-02-12T09:56:33.755Z,92.44
2023-02-12T09:57:33.762Z,93.16
2023-02-12T09:58:33.739Z,93.21
2023-02-12T09:59:33.737Z,94.03
2023-02-12T10:00:33.759Z,93.41
2023-02-12T10:01:33.750Z,93.62
2023-02-12T10:02:34.348Z,92.80
2023-02-12T10:03:33.705Z,92.44
2023-02-12T10:04:34.392Z,93.31
2023-02-12T10:05:33.694Z,93.27
2023-02-12T10:06:33.679Z,93.88
2023-02-12T10:07:33.707Z,93.79
2023-02-12T10:08:34.353Z,93.02
2023-02-12T10:09:33.703Z,92.82
2023-02-12T10:10:33.652Z,92.30
2023-02-12T10:11:33.638Z,92.40
2023-02-12T10:12:33.650Z,92.65
2023-02-12T10:13:33.634Z,92.86
2023-02-12T10:14:33.614Z,92.61
2023-02-12T10:15:33.659Z,92.65
2023-02-12T10:16:34.104Z,93.02
2023-02-12T10:17:33.597Z,92.71
2023-02-12T10:18:33.590Z,92.50
2023-02-12T10:19:33.589Z,92.71
2023-02-12T10:20:33.571Z,92.44
2023-02-12T10:21:33.573Z,92.61
2023-02-12T10:22:33.578Z,92.82
2023-02-12T10:23:33.543Z,92.71
2023-02-12T10:24:33.586Z,92.86
2023-02-12T10:25:33.545Z,93.99
2023-02-12T10:26:33.534Z,93.33
2023-02-12T10:27:33.525Z,93.74
2023-02-12T10:28:33.578Z,93.23
2023-02-12T10:29:33.548Z,92.40
2023-02-12T10:30:33.562Z,93.02
2023-02-12T10:31:33.646Z,92.61
2023-02-12T10:32:33.490Z,92.82
2023-02-12T10:33:34.596Z,92.57
2023-02-12T10:34:33.463Z,92.46
2023-02-12T10:35:33.444Z,91.85
2023-02-12T10:36:33.435Z,91.64
2023-02-12T10:37:33.428Z,91.95
2023-02-12T10:38:33.422Z,91.95
2023-02-12T10:39:33.418Z,92.36
2023-02-12T10:40:33.394Z,92.57
2023-02-12T10:41:33.393Z,92.25
2023-02-12T10:42:33.389Z,92.16
2023-02-12T10:43:33.378Z,92.05
2023-02-12T10:44:33.360Z,92.01
2023-02-12T10:46:40.215Z,91.80
2023-02-12T10:47:40.155Z,91.35
2023-02-12T10:48:41.132Z,91.45
2023-02-12T10:49:40.129Z,91.00
2023-02-12T10:50:40.115Z,90.48
2023-02-12T10:51:40.111Z,89.87
2023-02-12T10:52:40.111Z,89.11
2023-02-12T10:53:40.095Z,88.59
2023-02-12T10:54:42.070Z,88.80
2023-02-12T10:55:42.068Z,88.18
2023-02-12T10:56:41.162Z,88.29
2023-02-12T10:57:41.159Z,88.29
2023-02-12T10:58:41.153Z,88.59
2023-02-12T10:59:41.141Z,88.80
2023-02-12T11:00:41.142Z,88.08
2023-02-12T11:01:41.151Z,87.98
2023-02-12T11:02:41.113Z,88.08
2023-02-12T11:03:41.129Z,88.08
2023-02-12T11:04:41.120Z,87.98
2023-02-12T11:05:41.084Z,88.59
2023-02-12T11:06:41.080Z,89.01
2023-02-12T11:07:41.070Z,88.90
2023-02-12T11:08:41.052Z,89.66
2023-02-12T11:09:41.051Z,89.97
2023-02-12T11:10:41.042Z,90.18
2023-02-12T11:11:41.040Z,90.18
2023-02-12T11:12:41.025Z,90.38
2023-02-12T11:13:41.025Z,89.21
2023-02-12T11:14:41.013Z,89.42
2023-02-12T11:15:41.075Z,88.90
2023-02-12T11:16:41.024Z,88.39
2023-02-12T11:17:40.988Z,87.88
2023-02-12T11:18:40.984Z,88.18
2023-02-12T11:19:40.967Z,88.59
2023-02-12T11:20:40.968Z,88.45
2023-02-12T11:21:40.954Z,88.04
2023-02-12T11:22:40.947Z,87.98
2023-02-12T11:23:40.945Z,87.94
2023-02-12T11:24:40.931Z,88.04
2023-02-12T11:25:40.919Z,87.28
2023-02-12T11:26:40.921Z,86.66
2023-02-12T11:27:40.904Z,86.77
2023-02-12T11:28:40.947Z,86.73
2023-02-12T11:29:40.875Z,86.46
2023-02-12T11:30:41.895Z,86.66
2023-02-12T11:31:41.629Z,86.57
2023-02-12T11:32:40.856Z,86.63
2023-02-12T11:33:40.849Z,86.57
2023-02-12T11:34:40.848Z,86.42
2023-02-12T11:35:40.842Z,85.91
2023-02-12T11:36:40.836Z,86.42
2023-02-12T11:37:40.815Z,85.71
2023-02-12T11:38:40.823Z,85.91
2023-02-12T11:39:40.815Z,85.71
2023-02-12T11:40:40.796Z,86.01
2023-02-12T11:41:40.787Z,86.15
2023-02-12T11:42:40.791Z,86.57
2023-02-12T11:43:40.768Z,86.87
2023-02-12T11:44:40.778Z,88.14
2023-02-12T11:45:40.753Z,87.84
2023-02-12T11:46:40.773Z,87.84
2023-02-12T11:47:41.516Z,88.24
2023-02-12T11:48:40.737Z,87.12
2023-02-12T11:49:42.691Z,87.08
2023-02-12T11:50:40.725Z,86.81
2023-02-12T11:51:40.706Z,87.02
2023-02-12T11:52:40.714Z,87.88
2023-02-12T11:53:40.692Z,87.88
2023-02-12T11:54:40.695Z,87.84
2023-02-12T11:55:40.678Z,88.14
2023-02-12T11:56:40.660Z,88.14
2023-02-12T11:57:41.517Z,88.14
2023-02-12T11:58:40.660Z,88.49
2023-02-12T11:59:40.637Z,88.39
2023-02-12T12:00:40.629Z,88.24
2023-02-12T12:01:40.637Z,88.00
2023-02-12T12:02:40.751Z,88.10
2023-02-12T12:03:40.603Z,87.28
2023-02-12T12:04:40.598Z,87.08
2023-02-12T12:05:40.604Z,86.93
2023-02-12T12:06:41.098Z,86.63
2023-02-12T12:07:40.575Z,87.04
2023-02-12T12:08:40.580Z,86.69
2023-02-12T12:09:40.540Z,86.11
2023-02-12T12:10:41.543Z,86.07
2023-02-12T12:11:40.550Z,85.93
2023-02-12T12:12:40.534Z,85.52
2023-02-12T12:13:40.522Z,85.46
2023-02-12T12:14:40.509Z,85.52
2023-02-12T12:15:40.518Z,85.22
2023-02-12T12:16:40.523Z,84.80
2023-02-12T12:17:40.493Z,84.91
2023-02-12T12:18:40.478Z,84.56
2023-02-12T12:19:40.565Z,84.50
2023-02-12T12:20:40.461Z,84.50
2023-02-12T12:21:40.458Z,84.56
2023-02-12T12:22:40.476Z,84.29
2023-02-12T12:23:41.015Z,83.98
2023-02-12T12:24:40.434Z,84.33
2023-02-12T12:25:40.424Z,84.91
2023-02-12T12:26:40.413Z,84.91
2023-02-12T12:27:40.406Z,84.44
2023-02-12T12:28:40.470Z,84.64
2023-02-12T12:29:41.103Z,85.60
2023-02-12T12:30:42.090Z,86.25
2023-02-12T12:31:40.434Z,87.12
2023-02-12T12:32:40.358Z,88.14
2023-02-12T12:33:40.353Z,87.49
2023-02-12T12:34:40.352Z,86.36
2023-02-12T12:35:40.352Z,86.01
2023-02-12T12:36:40.329Z,85.56
2023-02-12T12:37:40.327Z,85.77
2023-02-12T12:38:40.339Z,85.05
2023-02-12T12:39:40.323Z,85.01
2023-02-12T12:40:40.329Z,84.39
2023-02-12T12:41:40.286Z,84.91
2023-02-12T12:42:40.288Z,84.60
2023-02-12T12:43:40.266Z,84.60
2023-02-12T12:44:40.256Z,84.29
2023-02-12T12:45:40.313Z,84.39
2023-02-12T12:46:41.097Z,84.50
2023-02-12T12:47:40.250Z,84.39
2023-02-12T12:48:40.242Z,84.74
2023-02-12T12:49:40.216Z,83.98
2023-02-12T12:50:40.216Z,84.29
2023-02-12T12:51:40.212Z,83.98
2023-02-12T12:52:40.204Z,84.19
2023-02-12T12:53:40.214Z,83.98
2023-02-12T12:54:40.186Z,84.39
2023-02-12T12:55:40.178Z,84.50
2023-02-12T12:56:40.184Z,84.19